createdAt,value
2019-04-14T00:02:59.793Z,"    0"
2019-04-14T00:07:56.345Z,"    0"
2019-04-14T00:12:51.568Z,"    0"
2019-04-14T00:17:47.900Z,"    0"
2019-04-14T00:22:44.554Z,"    0"
2019-04-14T00:27:40.826Z,"    0"
2019-04-14T00:32:37.847Z,"    0"
2019-04-14T00:37:33.868Z,"    0"
2019-04-14T00:42:29.857Z,"    0"
2019-04-14T00:47:25.219Z,"    0"
2019-04-14T00:52:21.212Z,"    0"
2019-04-14T00:57:18.095Z,"    0"
2019-04-14T01:02:13.181Z,"    0"
2019-04-14T01:07:08.818Z,"    0"
2019-04-14T01:12:04.446Z,"    0"
2019-04-14T01:17:00.616Z,"    0"
2019-04-14T01:21:57.007Z,"    0"
2019-04-14T01:26:52.928Z,"    0"
2019-04-14T01:31:49.358Z,"    0"
2019-04-14T01:36:45.745Z,"    0"
2019-04-14T01:41:41.130Z,"    0"
2019-04-14T01:46:37.375Z,"    0"
2019-04-14T01:51:33.152Z,"    0"
2019-04-14T01:56:29.441Z,"    0"
2019-04-14T02:01:25.816Z,"    0"
2019-04-14T02:06:22.329Z,"    0"
2019-04-14T02:11:18.348Z,"    0"
2019-04-14T02:16:24.024Z,"    0"
2019-04-14T02:21:12.891Z,"    0"
2019-04-14T02:26:09.177Z,"    0"
2019-04-14T02:31:17.205Z,"    0"
2019-04-14T02:36:36.271Z,"    0"
2019-04-14T02:41:37.972Z,"    0"
2019-04-14T02:46:31.422Z,"    0"
2019-04-14T02:51:29.577Z,"    0"
2019-04-14T02:56:27.997Z,"    0"
2019-04-14T03:01:40.620Z,"    0"
2019-04-14T03:06:18.151Z,"    0"
2019-04-14T03:11:24.579Z,"    0"
2019-04-14T03:16:23.617Z,"    0"
2019-04-14T03:21:34.576Z,"    0"
2019-04-14T03:26:22.963Z,"    0"
2019-04-14T03:31:37.623Z,"    0"
2019-04-14T03:46:17.755Z,"    0"
2019-04-14T03:51:16.789Z,"    0"
2019-04-14T03:55:54.383Z,"    0"
2019-04-14T04:00:49.165Z,"    0"
2019-04-14T04:05:44.198Z,"    0"
2019-04-14T04:10:40.037Z,"    0"
2019-04-14T04:15:36.497Z,"    0"
2019-04-14T04:20:39.158Z,"    0"
2019-04-14T04:25:34.022Z,"    0"
2019-04-14T04:30:30.163Z,"    0"
2019-04-14T04:35:26.015Z,"    0"
2019-04-14T04:40:22.306Z,"    5"
2019-04-14T04:45:17.676Z,"   10"
2019-04-14T04:50:13.486Z,"   10"
2019-04-14T04:55:09.788Z,"   20"
2019-04-14T05:00:07.243Z,"   25"
2019-04-14T05:05:03.516Z,"   30"
2019-04-14T05:10:00.174Z,"   40"
2019-04-14T05:14:56.662Z,"   45"
2019-04-14T05:19:51.949Z,"   50"
2019-04-14T05:24:48.603Z,"   60"
2019-04-14T05:29:44.991Z,"   65"
2019-04-14T05:34:41.208Z,"   70"
2019-04-14T05:39:37.478Z,"   75"
2019-04-14T05:44:34.143Z,"   90"
2019-04-14T05:49:37.858Z,"   90"
2019-04-14T05:54:29.643Z,"  100"
2019-04-14T05:59:25.011Z,"  105"
2019-04-14T06:04:22.175Z,"  125"
2019-04-14T06:09:17.698Z,"  130"
2019-04-14T06:14:13.371Z,"  125"
2019-04-14T06:19:09.078Z,"  185"
2019-04-14T06:24:12.548Z,"  165"
2019-04-14T06:29:06.993Z,"  145"
2019-04-14T06:34:02.546Z,"  150"
2019-04-14T06:38:58.725Z,"  160"
2019-04-14T06:43:55.623Z,"  165"
2019-04-14T06:48:51.086Z,"  175"
2019-04-14T06:53:46.258Z,"  175"
2019-04-14T06:58:42.037Z,"  195"
2019-04-14T07:03:38.781Z,"  225"
2019-04-14T07:08:35.671Z,"  205"
2019-04-14T07:13:31.111Z,"  200"
2019-04-14T07:18:26.651Z,"  220"
2019-04-14T07:23:22.596Z,"  240"
2019-04-14T07:28:18.470Z,"  260"
2019-04-14T07:33:14.541Z,"  265"
2019-04-14T07:38:10.279Z,"  245"
2019-04-14T07:43:06.323Z,"  230"
2019-04-14T07:48:02.955Z,"  265"
2019-04-14T07:52:58.611Z,"  280"
2019-04-14T07:57:54.337Z,"  435"
2019-04-14T08:02:51.102Z,"  445"
2019-04-14T08:07:47.406Z,"  440"
2019-04-14T08:12:43.920Z,"  400"
2019-04-14T08:17:40.124Z,"  660"
2019-04-14T08:22:36.820Z,"  700"
2019-04-14T08:32:33.034Z,"  535"
2019-04-14T08:37:28.282Z,"  405"
2019-04-14T08:42:24.750Z,"  515"
2019-04-14T08:47:21.394Z,"  490"
2019-04-14T08:52:17.333Z,"  395"
2019-04-14T08:57:12.911Z,"  560"
2019-04-14T09:02:09.067Z,"  470"
2019-04-14T09:07:05.157Z,"  515"
2019-04-14T09:12:00.992Z,"  650"
2019-04-14T09:16:56.828Z,"  610"
2019-04-14T09:21:52.986Z,"  685"
2019-04-14T09:26:49.824Z,"  410"
2019-04-14T09:31:45.755Z,"  380"
2019-04-14T09:36:41.392Z,"  365"
2019-04-14T09:41:37.190Z,"  355"
2019-04-14T09:46:33.378Z,"  425"
2019-04-14T09:51:28.760Z,"  425"
2019-04-14T09:56:25.246Z,"  540"
2019-04-14T10:01:21.224Z,"  355"
2019-04-14T10:06:17.013Z,"  530"
2019-04-14T10:11:13.773Z," 1175"
2019-04-14T10:16:10.345Z,"  515"
2019-04-14T10:21:16.921Z," 1095"
2019-04-14T10:26:07.111Z," 1170"
2019-04-14T10:31:03.961Z,"  695"
2019-04-14T10:36:00.781Z," 1145"
2019-04-14T10:40:56.899Z," 1225"
2019-04-14T10:45:54.003Z," 1250"
2019-04-14T10:50:50.352Z," 1185"
2019-04-14T10:55:45.792Z," 1040"
2019-04-14T11:00:42.304Z,"  945"
2019-04-14T11:05:39.845Z," 1070"
2019-04-14T11:10:36.517Z," 1115"
2019-04-14T11:15:30.618Z,"  235"
2019-04-14T11:20:24.289Z,"  280"
2019-04-14T11:25:21.480Z,"  470"
2019-04-14T11:30:18.469Z,"  670"
2019-04-14T11:35:16.345Z,"  240"
2019-04-14T11:40:11.739Z," 1355"
2019-04-14T11:45:09.742Z," 1360"
2019-04-14T11:50:05.962Z,"  440"
2019-04-14T11:55:01.688Z,"  360"
2019-04-14T11:59:59.594Z," 1160"
2019-04-14T12:04:55.952Z,"  375"
2019-04-14T12:09:51.419Z,"  225"
2019-04-14T12:14:46.975Z,"  310"
2019-04-14T12:19:41.930Z,"  520"
2019-04-14T12:24:38.052Z,"  295"
2019-04-14T12:29:34.919Z,"  190"
2019-04-14T12:34:31.168Z,"  280"
2019-04-14T12:39:28.070Z,"  435"
2019-04-14T12:44:24.560Z,"  370"
2019-04-14T12:49:21.600Z,"  230"
2019-04-14T12:54:17.898Z,"  220"
2019-04-14T12:59:14.472Z,"  590"
2019-04-14T13:04:10.493Z,"  355"
2019-04-14T13:09:06.435Z,"  250"
2019-04-14T13:14:02.065Z,"  280"
2019-04-14T13:18:57.861Z,"  230"
2019-04-14T13:23:53.085Z,"  160"
2019-04-14T13:28:49.109Z,"  245"
2019-04-14T13:33:45.232Z,"  475"
2019-04-14T13:38:41.069Z,"  130"
2019-04-14T13:43:38.059Z,"  135"
2019-04-14T13:48:33.719Z,"  120"
2019-04-14T13:53:29.837Z,"  140"
2019-04-14T13:58:25.158Z,"  150"
2019-04-14T14:03:21.102Z,"  165"
2019-04-14T14:08:17.134Z,"  240"
2019-04-14T14:13:13.226Z,"  890"
2019-04-14T14:18:10.206Z,"  255"
2019-04-14T14:23:05.799Z,"  220"
2019-04-14T14:28:01.401Z,"  230"
2019-04-14T14:32:57.354Z,"  240"
2019-04-14T14:37:54.116Z,"  130"
2019-04-14T14:42:48.779Z,"   70"
2019-04-14T14:47:44.716Z,"   95"
2019-04-14T14:52:40.409Z,"  120"
2019-04-14T14:57:35.802Z,"  125"
2019-04-14T15:02:31.702Z,"  115"
2019-04-14T15:07:27.610Z,"  115"
2019-04-14T15:12:23.824Z,"  120"
2019-04-14T15:17:19.670Z,"  110"
2019-04-14T15:22:15.445Z,"  105"
2019-04-14T15:27:11.368Z,"  115"
2019-04-14T15:32:07.205Z,"   90"
2019-04-14T15:37:03.074Z,"   70"
2019-04-14T15:41:59.019Z,"   60"
2019-04-14T15:46:55.887Z,"   55"
2019-04-14T15:51:51.417Z,"   70"
2019-04-14T15:56:47.060Z,"   60"
2019-04-14T16:01:42.623Z,"   55"
2019-04-14T16:06:39.085Z,"   50"
2019-04-14T16:11:35.467Z,"   35"
2019-04-14T16:16:30.950Z,"   30"
2019-04-14T16:21:26.887Z,"   35"
2019-04-14T16:26:22.842Z,"   40"
2019-04-14T16:31:18.582Z,"   40"
2019-04-14T16:36:14.330Z,"   40"
2019-04-14T16:41:09.768Z,"   50"
2019-04-14T16:46:06.520Z,"   55"
2019-04-14T16:51:09.996Z,"   55"
2019-04-14T16:56:04.708Z,"   55"
2019-04-14T17:01:00.565Z,"   60"
2019-04-14T17:05:56.240Z,"   60"
2019-04-14T17:10:51.745Z,"   55"
2019-04-14T17:15:54.902Z,"   50"
2019-04-14T17:20:51.027Z,"   50"
2019-04-14T17:25:48.833Z,"   50"
2019-04-14T17:30:44.345Z,"   50"
2019-04-14T17:35:40.242Z,"   45"
2019-04-14T17:40:37.970Z,"   35"
2019-04-14T17:45:33.657Z,"   30"
2019-04-14T17:50:40.028Z,"   25"
2019-04-14T17:55:28.309Z,"   20"
2019-04-14T18:00:24.159Z,"   10"
2019-04-14T18:05:20.648Z,"   10"
2019-04-14T18:10:16.001Z,"    5"
2019-04-14T18:15:12.292Z,"    0"
2019-04-14T18:20:08.119Z,"    0"
2019-04-14T18:25:03.877Z,"    0"
2019-04-14T18:29:59.148Z,"    0"
2019-04-14T18:34:55.215Z,"    0"
2019-04-14T18:39:52.396Z,"    0"
2019-04-14T18:44:51.138Z,"    0"
2019-04-14T18:49:45.740Z,"    0"
2019-04-14T18:54:41.058Z,"    0"
2019-04-14T18:59:36.846Z,"    0"
2019-04-14T19:04:33.893Z,"    0"
2019-04-14T19:09:29.660Z,"    0"
2019-04-14T19:14:25.345Z,"    0"
2019-04-14T19:19:21.289Z,"    0"
2019-04-14T19:24:16.885Z,"    0"
2019-04-14T19:29:13.963Z,"    0"
2019-04-14T19:34:10.363Z,"    0"
2019-04-14T19:39:05.951Z,"    0"
2019-04-14T19:44:01.730Z,"    0"
2019-04-14T19:48:57.859Z,"    0"
2019-04-14T19:53:53.490Z,"    0"
2019-04-14T19:58:50.073Z,"    0"
2019-04-14T20:03:46.679Z,"    0"
2019-04-14T20:08:42.136Z,"    0"
2019-04-14T20:13:42.296Z,"    0"
2019-04-14T20:18:38.381Z,"    0"
2019-04-14T20:23:33.634Z,"    0"
2019-04-14T20:28:29.295Z,"    0"
2019-04-14T20:33:27.238Z,"    0"
2019-04-14T20:38:22.993Z,"    0"
2019-04-14T20:43:19.552Z,"    0"
2019-04-14T20:48:17.220Z,"    0"
2019-04-14T20:53:12.290Z,"    0"
2019-04-14T20:58:07.920Z,"    0"
2019-04-14T21:03:03.745Z,"    0"
2019-04-14T21:07:59.256Z,"    0"
2019-04-14T21:12:57.408Z,"    0"
2019-04-14T21:17:52.952Z,"    0"
2019-04-14T21:22:49.026Z,"    0"
2019-04-14T21:27:45.814Z,"    0"
2019-04-14T21:32:42.867Z,"    0"
2019-04-14T21:37:38.444Z,"    0"
2019-04-14T21:42:34.178Z,"    0"
2019-04-14T21:47:30.035Z,"    0"
2019-04-14T21:52:25.813Z,"    0"
2019-04-14T21:57:21.642Z,"    0"
2019-04-14T22:02:17.265Z,"    0"
2019-04-14T22:07:12.975Z,"    0"
2019-04-14T22:12:08.658Z,"    0"
2019-04-14T22:17:04.407Z,"    0"
2019-04-14T22:22:00.040Z,"    0"
2019-04-14T22:26:55.847Z,"    0"
2019-04-14T22:31:51.439Z,"    0"
2019-04-14T22:36:47.422Z,"    0"
2019-04-14T22:41:44.215Z,"    0"
2019-04-14T22:46:39.618Z,"    0"
2019-04-14T22:51:36.184Z,"    0"
2019-04-14T22:56:39.204Z,"    0"
2019-04-14T23:01:32.112Z,"    0"
2019-04-14T23:06:29.263Z,"    0"
2019-04-14T23:11:24.673Z,"    0"
2019-04-14T23:16:21.104Z,"    0"
2019-04-14T23:21:17.589Z,"    0"
2019-04-14T23:26:13.501Z,"    0"
2019-04-14T23:31:09.976Z,"    0"
2019-04-14T23:36:04.946Z,"    0"
2019-04-14T23:41:01.878Z,"    0"
2019-04-14T23:45:57.312Z,"    0"
2019-04-14T23:50:53.312Z,"    0"
2019-04-14T23:55:50.381Z,"    0"
